James Reserve, California Weather observations

Data are for 10 minute period ending at time listed.
 Day   Time   Solar   Ave.   Ave.  Ave.  Vector  Max.   Baro.   Total    
  of    of     Rad.   Air    Rel.  Wind   Wind   Wind  Press.  Precip.   
Year   Day            Temp.  Hum.  Speed  Dir.   Gust                    
2015   (PST)  Kw/m2    F      %     mph   deg.    mph    mb.     in.     
-------------------------------------------------------------------------
 143    9:10   0.12   42.5    98    0.5   143     1.3   838.0    0.00 
 143    9:20   0.16   42.5    98    0.6   197     1.4   838.0    0.00 
 143    9:30   0.18   42.4    98    0.6   212     1.5   838.0    0.00 
 143    9:40   0.20   42.8    98    0.5   144     1.4   838.0    0.00 
 143    9:50   0.15   42.9    98    0.6   196     2.0   838.0    0.00 
 143   10:00   0.12   43.1    98    0.6   226     1.9   838.0    0.00 
 143   10:10   0.10   43.0    98    0.6   233     1.8   838.0    0.00 
 143   10:20   0.10   42.9    98    0.4   105     0.9   838.0    0.00 
 143   10:30   0.10   43.1    98    0.6   228     1.7   838.0    0.00 
 143   10:40   0.09   43.4    98    0.5   214     1.5   838.0    0.00 
 143   10:50   0.08   43.3    98    0.4   202     1.4   838.0    0.00 
 143   11:00   0.08   43.2    98    0.4   202     0.9   838.0    0.00 
 143   11:10   0.07   43.1    98    0.5   177     1.4   838.0    0.00 
 143   11:20   0.09   42.9    98    0.5   183     1.2   838.0    0.00 
 143   11:30   0.10   43.2    98    0.4   140     1.1   838.0    0.00 
 143   11:40   0.11   42.9    98    0.4   156     1.4   838.0    0.00 
 143   11:50   0.11   43.0    98    0.5   213     1.2   838.0    0.00 
 143   12:00   0.12   43.3    98    0.5   240     1.4   838.0    0.00 
 143   12:10   0.14   43.5    98    0.4   114     1.4   838.0    0.00 
 143   12:20   0.11   44.0    98    0.7   232     1.7   838.0    0.00 
 143   12:30   0.09   43.5    98    0.5   228     1.3   838.0    0.00 
 143   12:40   0.11   43.6    98    0.6    70     1.4   838.0    0.00 
 143   12:50   0.09   43.6    98    0.6   128     1.5   838.0    0.00 
 143   13:00   0.12   43.7    98    0.5   220     1.1   838.0    0.00 
 143   13:10   0.14   44.2    98    0.5   179     1.3   838.0    0.00 
 143   13:20   0.09   44.1    98    0.8   216     1.6   838.0    0.00 
 143   13:30   0.09   44.3    98    0.3   112     0.8   838.0    0.00 
 143   13:40   0.09   44.2    98    0.5   214     1.2   838.0    0.00 
 143   13:50   0.08   44.2    98    0.5   216     1.8   838.0    0.00 
 143   14:00   0.08   44.4    98    0.4   186     1.1   838.0    0.00 
 143   14:10   0.07   44.5    98    0.4   208     1.1   838.0    0.00 
 143   14:20   0.05   44.7    98    0.5   105     1.3   838.0    0.00 
 143   14:30   0.04   44.4    98    0.5    99     1.0   838.0    0.00 
 143   14:40   0.03   44.4    98    0.4   126     1.1   838.0    0.00 
 143   14:50   0.04   44.4    98    0.3   150     0.7   838.0    0.00 
 143   15:00   0.03   44.3    98    0.4   248     0.8   837.0    0.00 
 143   15:10   0.03   44.2    98    0.4   241     1.1   837.0    0.00 
 143   15:20   0.03   44.2    98    0.4    84     0.9   837.0    0.00 
 143   15:30   0.03   44.2    98    0.5   237     1.1   837.0    0.00 
 143   15:40   0.03   44.2    98    0.5    76     1.0   837.0    0.00 
 143   15:50   0.04   44.1    98    0.4   100     1.0   837.0    0.00 
 143   16:00   0.04   44.2    98    0.4   221     1.8   837.0    0.00 
 143   16:10   0.03   44.1    98    0.5   237     1.4   837.0    0.00 
 143   16:20   0.03   44.3    98    0.4    78     0.9   837.0    0.00 
 143   16:30   0.02   44.3    98    0.4   142     1.1   837.0    0.00 
 143   16:40   0.02   44.3    98    0.3   109     0.6   837.0    0.00 
 143   16:50   0.02   44.2    98    0.5   215     1.1   837.0    0.00 
 143   17:00   0.02   44.2    98    0.4   216     0.9   837.0    0.00 
 143   17:10   0.01   44.1    98    0.5   218     1.1   837.0    0.00 
 143   17:20   0.01   44.0    98    0.5   223     1.1   837.0    0.00 
 143   17:30   0.01   43.9    98    0.6   210     1.5   837.0    0.00 
 143   17:40   0.01   43.8    98    0.6   209     1.6   837.0    0.00 
 143   17:50   0.01   43.7    98    0.6   214     1.1   837.0    0.00 
 143   18:00   0.01   43.5    98    0.3   212     0.6   837.0    0.00 
 143   18:10   0.01   43.6    98    0.5    46     1.0   837.0    0.00 
 143   18:20   0.01   43.5    98    0.4    40     0.8   837.0    0.00 
 143   18:30   0.00   43.5    98    0.4    61     1.0   837.0    0.00 
 143   18:40   0.00   43.6    98    0.4    27     0.7   837.0    0.00 
 143   18:50   0.00   43.5    98    0.5    56     0.9   837.0    0.00 
 143   19:00   0.00   43.6    98    0.3    61     0.6   837.0    0.00 
 143   19:10   0.00   43.6    98    0.4    67     1.1   837.0    0.00 
 143   19:20   0.00   43.6    98    0.3    95     0.7   837.0    0.00 
 143   19:30   0.00   43.5    98    0.5    43     1.4   837.0    0.00 
 143   19:40   0.00   43.6    98    0.2   235     0.5   837.0    0.00 
 143   19:50   0.00   43.6    98    0.4   184     1.8   837.0    0.00 
 143   20:00   0.00   43.6    98    0.5   196     1.3   837.0    0.00 
 143   20:10   0.00   43.7    98    0.3   231     0.8   837.0    0.00 
 143   20:20   0.00   43.7    98    0.7    35     1.5   837.0    0.00 
 143   20:30   0.00   43.7    98    0.9    51     1.6   837.0    0.00 
 143   20:40   0.00   43.7    98    0.6   187     1.2   837.0    0.00 
 143   20:50   0.00   43.8    98    0.4    77     0.7   837.0    0.00 
 143   21:00   0.00   43.9    98    0.4    90     0.8   837.0    0.00 
 143   21:10   0.00   43.9    98    0.6    60     1.2   837.0    0.00 
 143   21:20   0.00   44.0    98    0.4    77     0.9   837.0    0.00 
 143   21:30   0.00   44.1    98    0.4    41     1.1   837.0    0.00 
 143   21:40   0.00   44.0    98    0.4    65     1.2   837.0    0.00 
 143   21:50   0.00   44.0    98    0.2   178     0.8   837.0    0.00 
 143   22:00   0.00   44.1    98    0.4    34     1.1   837.0    0.00 
 143   22:10   0.00   44.1    98    0.2    27     0.5   837.0    0.00 
 143   22:20   0.00   44.1    98    0.4    56     0.6   837.0    0.00 
 143   22:30   0.00   44.1    98    0.6    59     0.9   837.0    0.00 
 143   22:40   0.00   43.9    98    0.2    25     0.6   837.0    0.00 
 143   22:50   0.00   43.5    98    0.4    40     0.6   836.0    0.00 
 143   23:00   0.00   42.8    98    0.3     2     0.7   836.0    0.00 
 143   23:10   0.00   41.9    99    0.6    60     0.9   836.0    0.00 
 143   23:20   0.00   41.2    99    0.4    55     0.8   836.0    0.00 
 143   23:30   0.00   40.5    99    0.4    37     0.7   836.0    0.00 
 143   23:40   0.00   39.9    99    0.3     7     0.6   836.0    0.00 
 143   23:50   0.00   39.2    99    0.3    15     0.7   836.0    0.00 
 144    0:00   0.00   38.6    99    0.4    17     0.8   836.0    0.00 
 144    0:10   0.00   38.3    99    0.5    19     1.6   836.0    0.00 
 144    0:20   0.00   38.0    99    0.4    16     0.7   835.0    0.00 
 144    0:30   0.00   37.7    99    0.3    39     0.7   835.0    0.00 
 144    0:40   0.00   37.4   100    0.4    20     1.0   835.0    0.00 
 144    0:50   0.00   37.2   100    0.5    11     0.9   835.0    0.00 
 144    1:00   0.00   36.9   100    0.2     6     0.6   835.0    0.00 
 144    1:10   0.00   36.8   100    0.4    14     0.8   835.0    0.00 
 144    1:20   0.00   36.6   100    0.4    17     0.9   835.0    0.00 
 144    1:30   0.00   36.5   100    0.3   347     0.7   835.0    0.00 
 144    1:40   0.00   36.3   100    0.4    51     0.8   835.0    0.00 
 144    1:50   0.00   36.5   100    0.5    28     0.9   835.0    0.00 
 144    2:00   0.00   36.7   100    0.4    18     1.1   835.0    0.00 
 144    2:10   0.00   37.1   100    0.5    45     1.3   835.0    0.00 
 144    2:20   0.00   37.3   100    0.3    20     0.7   835.0    0.00 
 144    2:30   0.00   37.3   100    0.4    52     1.0   835.0    0.00 
 144    2:40   0.00   37.2   100    0.4    45     0.7   835.0    0.00 
 144    2:50   0.00   37.4   100    0.3    37     0.7   835.0    0.00 
 144    3:00   0.00   37.6   100    0.5    34     0.9   835.0    0.00 
 144    3:10   0.00   37.9   100    0.3    35     0.5   835.0    0.00 
 144    3:20   0.00   38.3    99    0.4    55     0.7   835.0    0.00 
 144    3:30   0.00   38.4    99    0.3     9     0.7   835.0    0.00 
 144    3:40   0.00   38.4    99    0.4    45     1.0   835.0    0.00 
 144    3:50   0.00   38.3    99    0.2     6     0.3   835.0    0.00 
 144    4:00   0.00   38.6    99    0.3    49     0.7   835.0    0.00 
 144    4:10   0.00   39.0    99    0.2    78     0.5   835.0    0.00 
 144    4:20   0.00   39.3    99    0.3    39     0.8   835.0    0.00 
 144    4:30   0.00   39.5    99    0.2    50     0.5   835.0    0.00 
 144    4:40   0.00   39.8    99    0.3    15     0.6   835.0    0.00 
 144    4:50   0.00   40.0    99    0.2    38     0.4   835.0    0.00 
 144    5:00   0.00   40.2    99    0.3    75     0.5   835.0    0.01 
 144    5:10   0.01   40.5    99    0.2    64     0.5   835.0    0.00 
 144    5:20   0.01   40.7    99    0.3    46     0.5   835.0    0.00 
 144    5:30   0.04   40.9    99    0.3   256     0.7   835.0    0.00 
 144    5:40   0.05   41.2    99    0.5   350     0.8   835.0    0.00 
 144    5:50   0.08   41.6    99    0.4   217     1.0   835.0    0.00 
 144    6:00   0.06   42.4    99    0.4   233     0.8   835.0    0.00 
 144    6:10   0.03   42.5    99    0.3   292     0.8   835.0    0.00 
 144    6:20   0.03   42.4    99    0.4    20     1.5   836.0    0.00 
 144    6:30   0.05   42.3    99    0.4    71     0.7   836.0    0.00 
 144    6:40   0.09   42.5    99    0.4    32     0.8   836.0    0.00 
 144    6:50   0.13   42.8    99    0.8   234     1.2   835.0    0.00 
 144    7:00   0.09   42.7    99    0.7   238     1.3   836.0    0.00 
 144    7:10   0.07   43.0    99    0.5   332     1.0   836.0    0.01 
 144    7:20   0.06   42.9    99    0.4    98     1.3   836.0    0.00 
 144    7:30   0.07   42.6    99    0.7   174     1.9   836.0    0.01 
 144    7:40   0.08   42.6    99    0.4   133     1.3   836.0    0.00 
 144    7:50   0.11   42.7    99    0.6   234     1.6   836.0    0.00 
 144    8:00   0.10   42.7    99    0.6   236     1.8   836.0    0.00 
 144    8:10   0.09   42.9    99    0.5   201     1.2   836.0    0.00 
 144    8:20   0.13   42.9    99    0.5   191     1.2   836.0    0.00 
 144    8:30   0.17   43.0    99    0.4   191     0.9   836.0    0.00 
 144    8:40   0.17   43.0    99    0.6   230     1.7   836.0    0.00 
 144    8:50   0.17   43.0    99    0.6   164     1.5   836.0    0.01 
 144    9:00   0.15   43.4    98    0.5   168     1.2   836.0    0.00 

Return to James Reserve graphs page.


Western Regional Climate Center,wrcc@dri.edu